sensor_id;sensor_type;location;lat;lon;timestamp;P1;durP1;ratioP1;P2;durP2;ratioP2
13951;SDS011;39535;52.192;9.886;2023-01-08T00:01:03;2.53;;;2.33;;
13951;SDS011;39535;52.192;9.886;2023-01-08T00:03:30;2.20;;;2.00;;
13951;SDS011;39535;52.192;9.886;2023-01-08T00:05:59;2.30;;;2.20;;
13951;SDS011;39535;52.192;9.886;2023-01-08T00:08:26;2.47;;;2.27;;
13951;SDS011;39535;52.192;9.886;2023-01-08T00:10:53;2.17;;;2.07;;
13951;SDS011;39535;52.192;9.886;2023-01-08T00:13:19;2.20;;;2.00;;
13951;SDS011;39535;52.192;9.886;2023-01-08T00:15:46;2.07;;;1.97;;
13951;SDS011;39535;52.192;9.886;2023-01-08T00:18:14;2.17;;;2.00;;
13951;SDS011;39535;52.192;9.886;2023-01-08T00:20:40;2.10;;;2.00;;
13951;SDS011;39535;52.192;9.886;2023-01-08T00:23:08;2.13;;;1.93;;
13951;SDS011;39535;52.192;9.886;2023-01-08T00:25:35;2.20;;;2.00;;
13951;SDS011;39535;52.192;9.886;2023-01-08T00:28:01;2.20;;;2.00;;
13951;SDS011;39535;52.192;9.886;2023-01-08T00:30:28;2.70;;;2.50;;
13951;SDS011;39535;52.192;9.886;2023-01-08T00:32:54;2.60;;;2.40;;
13951;SDS011;39535;52.192;9.886;2023-01-08T00:35:22;1.93;;;1.83;;
13951;SDS011;39535;52.192;9.886;2023-01-08T00:37:48;3.40;;;2.20;;
13951;SDS011;39535;52.192;9.886;2023-01-08T00:40:15;2.53;;;2.33;;
13951;SDS011;39535;52.192;9.886;2023-01-08T00:42:41;2.53;;;2.33;;
13951;SDS011;39535;52.192;9.886;2023-01-08T00:45:08;2.50;;;2.27;;
13951;SDS011;39535;52.192;9.886;2023-01-08T00:47:35;2.57;;;2.37;;
13951;SDS011;39535;52.192;9.886;2023-01-08T00:50:01;3.57;;;2.40;;
13951;SDS011;39535;52.192;9.886;2023-01-08T00:52:29;2.83;;;2.63;;
13951;SDS011;39535;52.192;9.886;2023-01-08T00:54:56;2.27;;;2.17;;
13951;SDS011;39535;52.192;9.886;2023-01-08T00:57:22;2.30;;;2.10;;
13951;SDS011;39535;52.192;9.886;2023-01-08T00:59:48;2.30;;;2.20;;
13951;SDS011;39535;52.192;9.886;2023-01-08T01:02:15;2.60;;;2.40;;
13951;SDS011;39535;52.192;9.886;2023-01-08T01:04:41;2.57;;;2.37;;
13951;SDS011;39535;52.192;9.886;2023-01-08T01:07:07;2.00;;;1.90;;
13951;SDS011;39535;52.192;9.886;2023-01-08T01:09:35;2.20;;;2.10;;
13951;SDS011;39535;52.192;9.886;2023-01-08T01:12:02;2.60;;;2.40;;
13951;SDS011;39535;52.192;9.886;2023-01-08T01:14:29;2.50;;;2.30;;
13951;SDS011;39535;52.192;9.886;2023-01-08T01:16:55;2.63;;;2.17;;
13951;SDS011;39535;52.192;9.886;2023-01-08T01:19:21;2.30;;;2.10;;
13951;SDS011;39535;52.192;9.886;2023-01-08T01:21:48;2.50;;;2.30;;
13951;SDS011;39535;52.192;9.886;2023-01-08T01:24:14;2.50;;;2.30;;
13951;SDS011;39535;52.192;9.886;2023-01-08T01:26:42;2.83;;;2.63;;
13951;SDS011;39535;52.192;9.886;2023-01-08T01:29:08;2.80;;;2.60;;
13951;SDS011;39535;52.192;9.886;2023-01-08T01:31:34;2.97;;;2.70;;
13951;SDS011;39535;52.192;9.886;2023-01-08T01:34:01;2.73;;;2.53;;
13951;SDS011;39535;52.192;9.886;2023-01-08T01:36:27;2.23;;;2.10;;
13951;SDS011;39535;52.192;9.886;2023-01-08T01:38:54;2.27;;;2.10;;
13951;SDS011;39535;52.192;9.886;2023-01-08T01:41:23;2.43;;;2.03;;
13951;SDS011;39535;52.192;9.886;2023-01-08T01:43:53;3.70;;;3.40;;
13951;SDS011;39535;52.192;9.886;2023-01-08T01:46:34;2.20;;;2.10;;
13951;SDS011;39535;52.192;9.886;2023-01-08T01:49:04;2.33;;;2.13;;
13951;SDS011;39535;52.192;9.886;2023-01-08T01:51:33;2.87;;;2.63;;
13951;SDS011;39535;52.192;9.886;2023-01-08T01:54:01;2.77;;;2.57;;
13951;SDS011;39535;52.192;9.886;2023-01-08T01:56:30;2.90;;;2.70;;
13951;SDS011;39535;52.192;9.886;2023-01-08T01:58:58;2.23;;;2.13;;
13951;SDS011;39535;52.192;9.886;2023-01-08T02:01:25;2.73;;;2.53;;
13951;SDS011;39535;52.192;9.886;2023-01-08T02:03:53;2.67;;;2.47;;
13951;SDS011;39535;52.192;9.886;2023-01-08T02:06:23;2.80;;;2.50;;
13951;SDS011;39535;52.192;9.886;2023-01-08T02:09:00;2.50;;;2.30;;
13951;SDS011;39535;52.192;9.886;2023-01-08T02:11:30;3.20;;;2.90;;
13951;SDS011;39535;52.192;9.886;2023-01-08T02:14:05;2.47;;;2.27;;
13951;SDS011;39535;52.192;9.886;2023-01-08T02:16:38;2.43;;;2.23;;
13951;SDS011;39535;52.192;9.886;2023-01-08T02:19:13;3.80;;;2.20;;
13951;SDS011;39535;52.192;9.886;2023-01-08T02:21:50;2.53;;;2.33;;
13951;SDS011;39535;52.192;9.886;2023-01-08T02:24:29;2.33;;;2.23;;
13951;SDS011;39535;52.192;9.886;2023-01-08T02:27:09;3.40;;;2.60;;
13951;SDS011;39535;52.192;9.886;2023-01-08T02:29:37;2.53;;;2.33;;
13951;SDS011;39535;52.192;9.886;2023-01-08T02:32:05;3.80;;;2.10;;
13951;SDS011;39535;52.192;9.886;2023-01-08T02:34:31;2.53;;;2.33;;
13951;SDS011;39535;52.192;9.886;2023-01-08T02:36:57;3.00;;;2.70;;
13951;SDS011;39535;52.192;9.886;2023-01-08T02:39:50;2.67;;;2.43;;
13951;SDS011;39535;52.192;9.886;2023-01-08T02:42:31;2.50;;;2.30;;
13951;SDS011;39535;52.192;9.886;2023-01-08T02:45:05;2.63;;;2.43;;
13951;SDS011;39535;52.192;9.886;2023-01-08T02:47:41;3.30;;;2.30;;
13951;SDS011;39535;52.192;9.886;2023-01-08T02:50:12;2.50;;;2.30;;
13951;SDS011;39535;52.192;9.886;2023-01-08T02:52:47;2.97;;;2.77;;
13951;SDS011;39535;52.192;9.886;2023-01-08T02:55:20;2.83;;;2.63;;
13951;SDS011;39535;52.192;9.886;2023-01-08T02:57:51;2.60;;;2.40;;
13951;SDS011;39535;52.192;9.886;2023-01-08T03:00:18;2.60;;;2.40;;
13951;SDS011;39535;52.192;9.886;2023-01-08T03:02:46;2.70;;;2.50;;
13951;SDS011;39535;52.192;9.886;2023-01-08T03:05:18;2.67;;;2.47;;
13951;SDS011;39535;52.192;9.886;2023-01-08T03:07:48;2.80;;;2.60;;
13951;SDS011;39535;52.192;9.886;2023-01-08T03:10:16;3.00;;;2.70;;
13951;SDS011;39535;52.192;9.886;2023-01-08T03:12:44;3.00;;;2.67;;
13951;SDS011;39535;52.192;9.886;2023-01-08T03:15:18;2.40;;;2.20;;
13951;SDS011;39535;52.192;9.886;2023-01-08T03:17:51;3.60;;;2.83;;
13951;SDS011;39535;52.192;9.886;2023-01-08T03:20:22;2.90;;;2.67;;
13951;SDS011;39535;52.192;9.886;2023-01-08T03:22:50;2.50;;;2.30;;
13951;SDS011;39535;52.192;9.886;2023-01-08T03:25:21;2.90;;;2.63;;
13951;SDS011;39535;52.192;9.886;2023-01-08T03:27:50;2.60;;;2.40;;
13951;SDS011;39535;52.192;9.886;2023-01-08T03:30:21;2.80;;;2.60;;
13951;SDS011;39535;52.192;9.886;2023-01-08T03:32:49;2.77;;;2.57;;
13951;SDS011;39535;52.192;9.886;2023-01-08T03:35:19;2.97;;;2.60;;
13951;SDS011;39535;52.192;9.886;2023-01-08T03:37:50;2.30;;;2.20;;
13951;SDS011;39535;52.192;9.886;2023-01-08T03:40:20;2.30;;;2.10;;
13951;SDS011;39535;52.192;9.886;2023-01-08T03:42:51;2.80;;;2.53;;
13951;SDS011;39535;52.192;9.886;2023-01-08T03:45:17;2.50;;;2.30;;
13951;SDS011;39535;52.192;9.886;2023-01-08T03:47:46;2.57;;;2.37;;
13951;SDS011;39535;52.192;9.886;2023-01-08T03:50:13;2.77;;;2.57;;
13951;SDS011;39535;52.192;9.886;2023-01-08T03:52:42;2.60;;;2.13;;
13951;SDS011;39535;52.192;9.886;2023-01-08T03:55:09;2.90;;;2.70;;
13951;SDS011;39535;52.192;9.886;2023-01-08T03:57:35;2.93;;;2.73;;
13951;SDS011;39535;52.192;9.886;2023-01-08T04:00:02;2.47;;;2.27;;
13951;SDS011;39535;52.192;9.886;2023-01-08T04:02:30;3.47;;;2.23;;
13951;SDS011;39535;52.192;9.886;2023-01-08T04:04:57;2.37;;;2.27;;
13951;SDS011;39535;52.192;9.886;2023-01-08T04:07:24;2.27;;;2.07;;
13951;SDS011;39535;52.192;9.886;2023-01-08T04:09:50;2.27;;;2.10;;
13951;SDS011;39535;52.192;9.886;2023-01-08T04:12:16;2.20;;;1.90;;
13951;SDS011;39535;52.192;9.886;2023-01-08T04:14:43;2.60;;;2.40;;
13951;SDS011;39535;52.192;9.886;2023-01-08T04:17:10;2.30;;;2.20;;
13951;SDS011;39535;52.192;9.886;2023-01-08T04:19:36;2.40;;;2.27;;
13951;SDS011;39535;52.192;9.886;2023-01-08T04:22:05;2.47;;;2.27;;
13951;SDS011;39535;52.192;9.886;2023-01-08T04:24:31;2.17;;;2.07;;
13951;SDS011;39535;52.192;9.886;2023-01-08T04:26:57;3.07;;;2.10;;
13951;SDS011;39535;52.192;9.886;2023-01-08T04:29:24;2.47;;;2.23;;
13951;SDS011;39535;52.192;9.886;2023-01-08T04:31:50;2.23;;;2.13;;
13951;SDS011;39535;52.192;9.886;2023-01-08T04:34:16;2.17;;;2.07;;
13951;SDS011;39535;52.192;9.886;2023-01-08T04:36:42;4.10;;;2.33;;
13951;SDS011;39535;52.192;9.886;2023-01-08T04:39:10;2.20;;;2.00;;
13951;SDS011;39535;52.192;9.886;2023-01-08T04:41:37;2.60;;;2.40;;
13951;SDS011;39535;52.192;9.886;2023-01-08T04:44:03;1.90;;;1.80;;
13951;SDS011;39535;52.192;9.886;2023-01-08T04:46:30;1.83;;;1.73;;
13951;SDS011;39535;52.192;9.886;2023-01-08T04:48:56;2.63;;;2.20;;
13951;SDS011;39535;52.192;9.886;2023-01-08T04:51:22;2.50;;;2.30;;
13951;SDS011;39535;52.192;9.886;2023-01-08T04:53:50;2.33;;;2.13;;
13951;SDS011;39535;52.192;9.886;2023-01-08T04:56:18;2.80;;;2.50;;
13951;SDS011;39535;52.192;9.886;2023-01-08T04:58:44;2.53;;;2.33;;
13951;SDS011;39535;52.192;9.886;2023-01-08T05:01:11;2.30;;;2.10;;
13951;SDS011;39535;52.192;9.886;2023-01-08T05:03:39;2.60;;;2.40;;
13951;SDS011;39535;52.192;9.886;2023-01-08T05:06:05;3.73;;;2.53;;
13951;SDS011;39535;52.192;9.886;2023-01-08T05:08:32;2.30;;;2.17;;
13951;SDS011;39535;52.192;9.886;2023-01-08T05:10:59;2.57;;;2.37;;
13951;SDS011;39535;52.192;9.886;2023-01-08T05:13:27;3.30;;;3.00;;
13951;SDS011;39535;52.192;9.886;2023-01-08T05:15:53;3.13;;;2.93;;
13951;SDS011;39535;52.192;9.886;2023-01-08T05:18:23;3.07;;;2.53;;
13951;SDS011;39535;52.192;9.886;2023-01-08T05:20:49;2.70;;;2.50;;
13951;SDS011;39535;52.192;9.886;2023-01-08T05:23:15;2.70;;;2.50;;
13951;SDS011;39535;52.192;9.886;2023-01-08T05:25:42;2.80;;;2.50;;
13951;SDS011;39535;52.192;9.886;2023-01-08T05:28:08;2.23;;;2.13;;
13951;SDS011;39535;52.192;9.886;2023-01-08T05:30:36;2.37;;;2.17;;
13951;SDS011;39535;52.192;9.886;2023-01-08T05:33:02;2.50;;;2.30;;
13951;SDS011;39535;52.192;9.886;2023-01-08T05:35:29;2.70;;;2.50;;
13951;SDS011;39535;52.192;9.886;2023-01-08T05:37:57;2.80;;;2.60;;
13951;SDS011;39535;52.192;9.886;2023-01-08T05:40:24;2.60;;;2.40;;
13951;SDS011;39535;52.192;9.886;2023-01-08T05:42:51;2.83;;;2.63;;
13951;SDS011;39535;52.192;9.886;2023-01-08T05:45:17;2.57;;;2.47;;
13951;SDS011;39535;52.192;9.886;2023-01-08T05:47:45;2.80;;;2.60;;
13951;SDS011;39535;52.192;9.886;2023-01-08T05:50:11;3.10;;;2.90;;
13951;SDS011;39535;52.192;9.886;2023-01-08T05:52:37;3.17;;;2.97;;
13951;SDS011;39535;52.192;9.886;2023-01-08T05:55:04;3.33;;;3.03;;
13951;SDS011;39535;52.192;9.886;2023-01-08T05:57:31;3.00;;;2.80;;
13951;SDS011;39535;52.192;9.886;2023-01-08T05:59:57;3.47;;;3.17;;
13951;SDS011;39535;52.192;9.886;2023-01-08T06:02:23;4.07;;;3.67;;
13951;SDS011;39535;52.192;9.886;2023-01-08T06:04:51;2.67;;;2.47;;
13951;SDS011;39535;52.192;9.886;2023-01-08T06:07:17;3.17;;;2.97;;
13951;SDS011;39535;52.192;9.886;2023-01-08T06:09:44;3.00;;;2.80;;
13951;SDS011;39535;52.192;9.886;2023-01-08T06:12:10;4.03;;;3.20;;
13951;SDS011;39535;52.192;9.886;2023-01-08T06:14:36;3.50;;;3.20;;
13951;SDS011;39535;52.192;9.886;2023-01-08T06:17:03;3.40;;;3.20;;
13951;SDS011;39535;52.192;9.886;2023-01-08T06:19:29;3.27;;;3.07;;
13951;SDS011;39535;52.192;9.886;2023-01-08T06:21:57;3.10;;;2.80;;
13951;SDS011;39535;52.192;9.886;2023-01-08T06:24:23;3.40;;;3.10;;
13951;SDS011;39535;52.192;9.886;2023-01-08T06:26:49;3.10;;;2.90;;
13951;SDS011;39535;52.192;9.886;2023-01-08T06:29:16;3.37;;;3.07;;
13951;SDS011;39535;52.192;9.886;2023-01-08T06:31:42;3.63;;;3.33;;
13951;SDS011;39535;52.192;9.886;2023-01-08T06:34:09;3.43;;;3.13;;
13951;SDS011;39535;52.192;9.886;2023-01-08T06:36:36;3.53;;;3.23;;
13951;SDS011;39535;52.192;9.886;2023-01-08T06:39:05;3.57;;;3.27;;
13951;SDS011;39535;52.192;9.886;2023-01-08T06:41:31;3.43;;;3.23;;
13951;SDS011;39535;52.192;9.886;2023-01-08T06:43:57;3.20;;;3.00;;
13951;SDS011;39535;52.192;9.886;2023-01-08T06:46:24;4.67;;;3.70;;
13951;SDS011;39535;52.192;9.886;2023-01-08T06:48:51;3.87;;;3.57;;
13951;SDS011;39535;52.192;9.886;2023-01-08T06:51:17;3.47;;;3.17;;
13951;SDS011;39535;52.192;9.886;2023-01-08T06:53:46;3.90;;;3.33;;
13951;SDS011;39535;52.192;9.886;2023-01-08T06:56:14;3.37;;;3.17;;
13951;SDS011;39535;52.192;9.886;2023-01-08T06:58:40;3.63;;;3.33;;
13951;SDS011;39535;52.192;9.886;2023-01-08T07:01:09;3.67;;;3.37;;
13951;SDS011;39535;52.192;9.886;2023-01-08T07:03:38;3.70;;;3.40;;
13951;SDS011;39535;52.192;9.886;2023-01-08T07:06:04;3.83;;;3.53;;
13951;SDS011;39535;52.192;9.886;2023-01-08T07:08:31;3.80;;;3.50;;
13951;SDS011;39535;52.192;9.886;2023-01-08T07:11:00;4.37;;;3.30;;
13951;SDS011;39535;52.192;9.886;2023-01-08T07:13:28;3.53;;;3.23;;
13951;SDS011;39535;52.192;9.886;2023-01-08T07:15:55;4.10;;;3.80;;
13951;SDS011;39535;52.192;9.886;2023-01-08T07:18:21;3.70;;;3.37;;
13951;SDS011;39535;52.192;9.886;2023-01-08T07:20:47;4.53;;;4.13;;
13951;SDS011;39535;52.192;9.886;2023-01-08T07:23:14;4.00;;;3.70;;
13951;SDS011;39535;52.192;9.886;2023-01-08T07:25:40;3.50;;;3.23;;
13951;SDS011;39535;52.192;9.886;2023-01-08T07:28:08;3.63;;;3.33;;
13951;SDS011;39535;52.192;9.886;2023-01-08T07:30:37;3.43;;;3.13;;
13951;SDS011;39535;52.192;9.886;2023-01-08T07:33:04;3.40;;;3.10;;
13951;SDS011;39535;52.192;9.886;2023-01-08T07:35:30;3.40;;;3.20;;
13951;SDS011;39535;52.192;9.886;2023-01-08T07:37:57;4.10;;;3.80;;
13951;SDS011;39535;52.192;9.886;2023-01-08T07:40:23;3.20;;;3.00;;
13951;SDS011;39535;52.192;9.886;2023-01-08T07:42:55;3.10;;;2.90;;
13951;SDS011;39535;52.192;9.886;2023-01-08T07:45:22;2.90;;;2.70;;
13951;SDS011;39535;52.192;9.886;2023-01-08T07:47:50;3.10;;;2.90;;
13951;SDS011;39535;52.192;9.886;2023-01-08T07:50:16;3.23;;;3.03;;
13951;SDS011;39535;52.192;9.886;2023-01-08T07:52:42;3.20;;;3.00;;
13951;SDS011;39535;52.192;9.886;2023-01-08T07:55:09;2.87;;;2.67;;
13951;SDS011;39535;52.192;9.886;2023-01-08T07:57:35;2.50;;;2.30;;
13951;SDS011;39535;52.192;9.886;2023-01-08T08:00:02;2.77;;;2.57;;
13951;SDS011;39535;52.192;9.886;2023-01-08T08:02:28;3.20;;;3.00;;
13951;SDS011;39535;52.192;9.886;2023-01-08T08:04:56;3.17;;;2.97;;
13951;SDS011;39535;52.192;9.886;2023-01-08T08:07:22;2.87;;;2.67;;
13951;SDS011;39535;52.192;9.886;2023-01-08T08:09:48;3.03;;;2.83;;
13951;SDS011;39535;52.192;9.886;2023-01-08T08:12:15;2.63;;;2.43;;
13951;SDS011;39535;52.192;9.886;2023-01-08T08:14:41;2.60;;;2.40;;
13951;SDS011;39535;52.192;9.886;2023-01-08T08:17:07;3.17;;;2.97;;
13951;SDS011;39535;52.192;9.886;2023-01-08T08:19:34;2.40;;;2.30;;
13951;SDS011;39535;52.192;9.886;2023-01-08T08:22:01;2.87;;;2.67;;
13951;SDS011;39535;52.192;9.886;2023-01-08T08:24:28;2.70;;;2.57;;
13951;SDS011;39535;52.192;9.886;2023-01-08T08:26:54;2.40;;;2.30;;
13951;SDS011;39535;52.192;9.886;2023-01-08T08:29:20;2.57;;;2.37;;
13951;SDS011;39535;52.192;9.886;2023-01-08T08:31:47;2.23;;;2.03;;
13951;SDS011;39535;52.192;9.886;2023-01-08T08:34:13;2.23;;;2.13;;
13951;SDS011;39535;52.192;9.886;2023-01-08T08:36:39;2.40;;;2.20;;
13951;SDS011;39535;52.192;9.886;2023-01-08T08:39:07;2.30;;;2.20;;
13951;SDS011;39535;52.192;9.886;2023-01-08T08:41:33;2.33;;;2.23;;
13951;SDS011;39535;52.192;9.886;2023-01-08T08:44:00;1.80;;;1.70;;
13951;SDS011;39535;52.192;9.886;2023-01-08T08:46:27;2.30;;;2.20;;
13951;SDS011;39535;52.192;9.886;2023-01-08T08:48:53;2.63;;;2.43;;
13951;SDS011;39535;52.192;9.886;2023-01-08T08:51:20;2.03;;;1.93;;
13951;SDS011;39535;52.192;9.886;2023-01-08T08:53:46;2.23;;;2.13;;
13951;SDS011;39535;52.192;9.886;2023-01-08T08:56:14;2.13;;;2.03;;
13951;SDS011;39535;52.192;9.886;2023-01-08T08:58:40;2.50;;;2.30;;
13951;SDS011;39535;52.192;9.886;2023-01-08T09:01:06;1.80;;;1.70;;
13951;SDS011;39535;52.192;9.886;2023-01-08T09:03:33;1.90;;;1.80;;
13951;SDS011;39535;52.192;9.886;2023-01-08T09:06:00;2.17;;;2.07;;
13951;SDS011;39535;52.192;9.886;2023-01-08T09:08:26;2.30;;;2.20;;
13951;SDS011;39535;52.192;9.886;2023-01-08T09:10:52;1.70;;;1.60;;
13951;SDS011;39535;52.192;9.886;2023-01-08T09:13:20;2.07;;;1.93;;
13951;SDS011;39535;52.192;9.886;2023-01-08T09:15:46;1.70;;;1.60;;
13951;SDS011;39535;52.192;9.886;2023-01-08T09:18:13;1.73;;;1.63;;
13951;SDS011;39535;52.192;9.886;2023-01-08T09:20:39;1.50;;;1.40;;
13951;SDS011;39535;52.192;9.886;2023-01-08T09:23:05;1.90;;;1.80;;
13951;SDS011;39535;52.192;9.886;2023-01-08T09:25:32;1.70;;;1.60;;
13951;SDS011;39535;52.192;9.886;2023-01-08T09:27:58;1.37;;;1.27;;
13951;SDS011;39535;52.192;9.886;2023-01-08T09:30:26;1.60;;;1.50;;
13951;SDS011;39535;52.192;9.886;2023-01-08T09:32:55;2.10;;;1.30;;
13951;SDS011;39535;52.192;9.886;2023-01-08T09:35:21;1.57;;;1.47;;
13951;SDS011;39535;52.192;9.886;2023-01-08T09:37:49;1.27;;;1.23;;
13951;SDS011;39535;52.192;9.886;2023-01-08T09:40:16;1.83;;;1.33;;
13951;SDS011;39535;52.192;9.886;2023-01-08T09:42:42;1.30;;;1.20;;
13951;SDS011;39535;52.192;9.886;2023-01-08T09:45:11;1.17;;;1.07;;
13951;SDS011;39535;52.192;9.886;2023-01-08T09:47:48;1.80;;;1.27;;
13951;SDS011;39535;52.192;9.886;2023-01-08T09:50:14;1.50;;;1.40;;
13951;SDS011;39535;52.192;9.886;2023-01-08T09:52:41;1.50;;;1.20;;
13951;SDS011;39535;52.192;9.886;2023-01-08T09:55:09;1.70;;;1.60;;
13951;SDS011;39535;52.192;9.886;2023-01-08T09:57:38;1.40;;;1.30;;
13951;SDS011;39535;52.192;9.886;2023-01-08T10:00:05;1.40;;;1.30;;
13951;SDS011;39535;52.192;9.886;2023-01-08T10:02:38;1.30;;;1.20;;
13951;SDS011;39535;52.192;9.886;2023-01-08T10:05:10;1.30;;;1.20;;
13951;SDS011;39535;52.192;9.886;2023-01-08T10:07:38;1.30;;;1.20;;
13951;SDS011;39535;52.192;9.886;2023-01-08T10:10:05;1.37;;;1.27;;
13951;SDS011;39535;52.192;9.886;2023-01-08T10:12:43;2.93;;;1.47;;
13951;SDS011;39535;52.192;9.886;2023-01-08T10:15:10;1.30;;;1.20;;
13951;SDS011;39535;52.192;9.886;2023-01-08T10:17:41;1.57;;;1.17;;
13951;SDS011;39535;52.192;9.886;2023-01-08T10:20:12;1.30;;;1.20;;
13951;SDS011;39535;52.192;9.886;2023-01-08T10:22:40;1.10;;;1.00;;
13951;SDS011;39535;52.192;9.886;2023-01-08T10:25:07;2.77;;;1.27;;
13951;SDS011;39535;52.192;9.886;2023-01-08T10:27:36;1.17;;;1.10;;
13951;SDS011;39535;52.192;9.886;2023-01-08T10:30:13;0.90;;;0.90;;
13951;SDS011;39535;52.192;9.886;2023-01-08T10:32:46;1.10;;;1.10;;
13951;SDS011;39535;52.192;9.886;2023-01-08T10:35:16;0.80;;;0.80;;
13951;SDS011;39535;52.192;9.886;2023-01-08T10:37:45;1.03;;;1.03;;
13951;SDS011;39535;52.192;9.886;2023-01-08T10:40:19;1.80;;;0.80;;
13951;SDS011;39535;52.192;9.886;2023-01-08T10:42:48;0.80;;;0.80;;
13951;SDS011;39535;52.192;9.886;2023-01-08T10:45:17;0.90;;;0.90;;
13951;SDS011;39535;52.192;9.886;2023-01-08T10:47:46;0.90;;;0.90;;
13951;SDS011;39535;52.192;9.886;2023-01-08T10:50:17;1.00;;;1.00;;
13951;SDS011;39535;52.192;9.886;2023-01-08T10:52:51;1.13;;;0.80;;
13951;SDS011;39535;52.192;9.886;2023-01-08T10:55:21;1.00;;;0.90;;
13951;SDS011;39535;52.192;9.886;2023-01-08T10:57:54;0.73;;;0.73;;
13951;SDS011;39535;52.192;9.886;2023-01-08T11:00:26;0.57;;;0.53;;
13951;SDS011;39535;52.192;9.886;2023-01-08T11:02:54;0.70;;;0.70;;
13951;SDS011;39535;52.192;9.886;2023-01-08T11:05:29;0.77;;;0.77;;
13951;SDS011;39535;52.192;9.886;2023-01-08T11:07:57;1.10;;;0.77;;
13951;SDS011;39535;52.192;9.886;2023-01-08T11:10:25;0.70;;;0.70;;
13951;SDS011;39535;52.192;9.886;2023-01-08T11:12:53;1.00;;;0.80;;
13951;SDS011;39535;52.192;9.886;2023-01-08T11:15:31;0.87;;;0.80;;
13951;SDS011;39535;52.192;9.886;2023-01-08T11:18:04;0.50;;;0.50;;
13951;SDS011;39535;52.192;9.886;2023-01-08T11:20:37;0.90;;;0.60;;
13951;SDS011;39535;52.192;9.886;2023-01-08T11:23:09;0.67;;;0.50;;
13951;SDS011;39535;52.192;9.886;2023-01-08T11:25:44;0.50;;;0.50;;
13951;SDS011;39535;52.192;9.886;2023-01-08T11:28:20;0.50;;;0.50;;
13951;SDS011;39535;52.192;9.886;2023-01-08T11:30:56;0.60;;;0.60;;
13951;SDS011;39535;52.192;9.886;2023-01-08T11:33:30;0.50;;;0.50;;
13951;SDS011;39535;52.192;9.886;2023-01-08T11:36:02;0.60;;;0.60;;
13951;SDS011;39535;52.192;9.886;2023-01-08T11:38:35;0.87;;;0.70;;
13951;SDS011;39535;52.192;9.886;2023-01-08T11:41:04;0.60;;;0.60;;
13951;SDS011;39535;52.192;9.886;2023-01-08T11:43:40;1.33;;;0.40;;
13951;SDS011;39535;52.192;9.886;2023-01-08T11:46:24;0.70;;;0.70;;
13951;SDS011;39535;52.192;9.886;2023-01-08T11:48:59;0.50;;;0.50;;
13951;SDS011;39535;52.192;9.886;2023-01-08T11:51:49;1.20;;;0.70;;
13951;SDS011;39535;52.192;9.886;2023-01-08T11:54:33;1.43;;;0.80;;
13951;SDS011;39535;52.192;9.886;2023-01-08T11:57:12;0.50;;;0.50;;
13951;SDS011;39535;52.192;9.886;2023-01-08T11:59:52;0.73;;;0.60;;
13951;SDS011;39535;52.192;9.886;2023-01-08T12:02:30;0.93;;;0.63;;
13951;SDS011;39535;52.192;9.886;2023-01-08T12:05:20;0.50;;;0.50;;
13951;SDS011;39535;52.192;9.886;2023-01-08T12:07:53;0.70;;;0.70;;
13951;SDS011;39535;52.192;9.886;2023-01-08T12:10:26;1.17;;;0.57;;
13951;SDS011;39535;52.192;9.886;2023-01-08T12:13:01;1.20;;;1.20;;
13951;SDS011;39535;52.192;9.886;2023-01-08T12:15:40;1.27;;;0.70;;
13951;SDS011;39535;52.192;9.886;2023-01-08T12:21:05;0.60;;;0.60;;
13951;SDS011;39535;52.192;9.886;2023-01-08T12:23:43;0.73;;;0.60;;
13951;SDS011;39535;52.192;9.886;2023-01-08T12:26:25;0.60;;;0.60;;
13951;SDS011;39535;52.192;9.886;2023-01-08T12:29:06;0.83;;;0.80;;
13951;SDS011;39535;52.192;9.886;2023-01-08T12:31:46;0.50;;;0.50;;
13951;SDS011;39535;52.192;9.886;2023-01-08T12:34:36;0.90;;;0.70;;
13951;SDS011;39535;52.192;9.886;2023-01-08T12:37:12;2.10;;;0.60;;
13951;SDS011;39535;52.192;9.886;2023-01-08T12:39:45;1.00;;;0.70;;
13951;SDS011;39535;52.192;9.886;2023-01-08T12:42:15;0.60;;;0.60;;
13951;SDS011;39535;52.192;9.886;2023-01-08T12:44:48;17.47;;;8.63;;
13951;SDS011;39535;52.192;9.886;2023-01-08T12:47:18;3.63;;;2.30;;
13951;SDS011;39535;52.192;9.886;2023-01-08T12:49:47;1.03;;;0.80;;
13951;SDS011;39535;52.192;9.886;2023-01-08T12:52:21;1.70;;;1.33;;
13951;SDS011;39535;52.192;9.886;2023-01-08T12:55:02;0.77;;;0.70;;
13951;SDS011;39535;52.192;9.886;2023-01-08T12:57:41;1.83;;;0.77;;
13951;SDS011;39535;52.192;9.886;2023-01-08T13:00:16;2.10;;;0.80;;
13951;SDS011;39535;52.192;9.886;2023-01-08T13:02:48;3.17;;;0.70;;
13951;SDS011;39535;52.192;9.886;2023-01-08T13:05:31;2.90;;;0.70;;
13951;SDS011;39535;52.192;9.886;2023-01-08T13:08:00;2.83;;;0.90;;
13951;SDS011;39535;52.192;9.886;2023-01-08T13:10:33;1.20;;;0.70;;
13951;SDS011;39535;52.192;9.886;2023-01-08T13:13:01;2.30;;;0.53;;
13951;SDS011;39535;52.192;9.886;2023-01-08T13:15:30;1.43;;;0.60;;
13951;SDS011;39535;52.192;9.886;2023-01-08T13:18:00;1.80;;;0.60;;
13951;SDS011;39535;52.192;9.886;2023-01-08T13:20:32;1.53;;;0.50;;
13951;SDS011;39535;52.192;9.886;2023-01-08T13:23:00;1.10;;;0.73;;
13951;SDS011;39535;52.192;9.886;2023-01-08T13:25:29;0.70;;;0.70;;
13951;SDS011;39535;52.192;9.886;2023-01-08T13:27:59;1.40;;;0.50;;
13951;SDS011;39535;52.192;9.886;2023-01-08T13:30:31;2.07;;;0.60;;
13951;SDS011;39535;52.192;9.886;2023-01-08T13:32:59;2.00;;;1.30;;
13951;SDS011;39535;52.192;9.886;2023-01-08T13:35:27;1.60;;;1.50;;
13951;SDS011;39535;52.192;9.886;2023-01-08T13:38:10;0.93;;;0.53;;
13951;SDS011;39535;52.192;9.886;2023-01-08T13:40:48;0.63;;;0.50;;
13951;SDS011;39535;52.192;9.886;2023-01-08T13:43:19;1.00;;;1.00;;
13951;SDS011;39535;52.192;9.886;2023-01-08T13:45:50;1.00;;;0.90;;
13951;SDS011;39535;52.192;9.886;2023-01-08T13:48:29;0.60;;;0.60;;
13951;SDS011;39535;52.192;9.886;2023-01-08T13:51:00;1.43;;;0.50;;
13951;SDS011;39535;52.192;9.886;2023-01-08T13:53:26;1.60;;;0.80;;
13951;SDS011;39535;52.192;9.886;2023-01-08T13:55:53;0.63;;;0.50;;
13951;SDS011;39535;52.192;9.886;2023-01-08T13:58:25;1.80;;;0.60;;
13951;SDS011;39535;52.192;9.886;2023-01-08T14:00:53;1.50;;;0.70;;
13951;SDS011;39535;52.192;9.886;2023-01-08T14:03:21;0.60;;;0.60;;
13951;SDS011;39535;52.192;9.886;2023-01-08T14:05:49;0.70;;;0.70;;
13951;SDS011;39535;52.192;9.886;2023-01-08T14:08:22;0.67;;;0.67;;
13951;SDS011;39535;52.192;9.886;2023-01-08T14:10:49;0.83;;;0.80;;
13951;SDS011;39535;52.192;9.886;2023-01-08T14:13:16;0.63;;;0.60;;
13951;SDS011;39535;52.192;9.886;2023-01-08T14:15:47;0.53;;;0.50;;
13951;SDS011;39535;52.192;9.886;2023-01-08T14:18:13;1.07;;;0.80;;
13951;SDS011;39535;52.192;9.886;2023-01-08T14:20:40;1.13;;;0.87;;
13951;SDS011;39535;52.192;9.886;2023-01-08T14:23:10;0.70;;;0.70;;
13951;SDS011;39535;52.192;9.886;2023-01-08T14:25:45;0.60;;;0.60;;
13951;SDS011;39535;52.192;9.886;2023-01-08T14:28:14;0.70;;;0.70;;
13951;SDS011;39535;52.192;9.886;2023-01-08T14:30:47;0.90;;;0.70;;
13951;SDS011;39535;52.192;9.886;2023-01-08T14:33:14;1.30;;;0.70;;
13951;SDS011;39535;52.192;9.886;2023-01-08T14:35:41;0.73;;;0.70;;
13951;SDS011;39535;52.192;9.886;2023-01-08T14:38:10;1.27;;;0.67;;
13951;SDS011;39535;52.192;9.886;2023-01-08T14:40:39;0.60;;;0.60;;
13951;SDS011;39535;52.192;9.886;2023-01-08T14:43:09;0.70;;;0.70;;
13951;SDS011;39535;52.192;9.886;2023-01-08T14:45:37;0.87;;;0.80;;
13951;SDS011;39535;52.192;9.886;2023-01-08T14:48:11;0.83;;;0.70;;
13951;SDS011;39535;52.192;9.886;2023-01-08T14:50:44;1.10;;;0.70;;
13951;SDS011;39535;52.192;9.886;2023-01-08T14:53:26;0.83;;;0.80;;
13951;SDS011;39535;52.192;9.886;2023-01-08T14:55:55;0.80;;;0.70;;
13951;SDS011;39535;52.192;9.886;2023-01-08T14:58:23;1.30;;;1.20;;
13951;SDS011;39535;52.192;9.886;2023-01-08T15:00:51;0.80;;;0.80;;
13951;SDS011;39535;52.192;9.886;2023-01-08T15:03:26;0.73;;;0.60;;